sensor_id;sensor_type;location;lat;lon;timestamp;P1;durP1;ratioP1;P2;durP2;ratioP2
67146;SDS011;54061;52.036;5.558;2022-11-13T00:02:08;27.75;;;14.40;;
67146;SDS011;54061;52.036;5.558;2022-11-13T00:04:34;25.23;;;15.18;;
67146;SDS011;54061;52.036;5.558;2022-11-13T00:06:59;29.38;;;14.95;;
67146;SDS011;54061;52.036;5.558;2022-11-13T00:09:25;26.65;;;16.05;;
67146;SDS011;54061;52.036;5.558;2022-11-13T00:11:51;28.80;;;14.98;;
67146;SDS011;54061;52.036;5.558;2022-11-13T00:14:16;29.27;;;14.20;;
67146;SDS011;54061;52.036;5.558;2022-11-13T00:16:42;25.48;;;13.98;;
67146;SDS011;54061;52.036;5.558;2022-11-13T00:19:07;25.20;;;13.02;;
67146;SDS011;54061;52.036;5.558;2022-11-13T00:21:33;25.35;;;13.82;;
67146;SDS011;54061;52.036;5.558;2022-11-13T00:23:58;26.40;;;13.15;;
67146;SDS011;54061;52.036;5.558;2022-11-13T00:26:25;20.63;;;12.60;;
67146;SDS011;54061;52.036;5.558;2022-11-13T00:28:56;23.83;;;12.57;;
67146;SDS011;54061;52.036;5.558;2022-11-13T00:31:24;18.88;;;12.32;;
67146;SDS011;54061;52.036;5.558;2022-11-13T00:33:50;22.55;;;13.70;;
67146;SDS011;54061;52.036;5.558;2022-11-13T00:36:17;28.52;;;13.85;;
67146;SDS011;54061;52.036;5.558;2022-11-13T00:38:50;24.08;;;13.30;;
67146;SDS011;54061;52.036;5.558;2022-11-13T00:41:15;30.92;;;15.35;;
67146;SDS011;54061;52.036;5.558;2022-11-13T00:43:41;25.77;;;13.50;;
67146;SDS011;54061;52.036;5.558;2022-11-13T00:46:07;24.73;;;13.90;;
67146;SDS011;54061;52.036;5.558;2022-11-13T00:48:33;20.33;;;13.10;;
67146;SDS011;54061;52.036;5.558;2022-11-13T00:50:59;25.30;;;13.60;;
67146;SDS011;54061;52.036;5.558;2022-11-13T00:53:25;23.17;;;14.18;;
67146;SDS011;54061;52.036;5.558;2022-11-13T00:55:51;25.77;;;13.85;;
67146;SDS011;54061;52.036;5.558;2022-11-13T00:58:16;24.15;;;13.73;;
67146;SDS011;54061;52.036;5.558;2022-11-13T01:00:43;35.95;;;13.15;;
67146;SDS011;54061;52.036;5.558;2022-11-13T01:03:10;21.90;;;12.35;;
67146;SDS011;54061;52.036;5.558;2022-11-13T01:05:37;24.02;;;13.05;;
67146;SDS011;54061;52.036;5.558;2022-11-13T01:08:04;23.30;;;12.57;;
67146;SDS011;54061;52.036;5.558;2022-11-13T01:10:31;21.70;;;11.68;;
67146;SDS011;54061;52.036;5.558;2022-11-13T01:12:57;21.20;;;11.90;;
67146;SDS011;54061;52.036;5.558;2022-11-13T01:15:23;24.60;;;13.70;;
67146;SDS011;54061;52.036;5.558;2022-11-13T01:17:48;20.92;;;11.52;;
67146;SDS011;54061;52.036;5.558;2022-11-13T01:20:15;26.13;;;12.77;;
67146;SDS011;54061;52.036;5.558;2022-11-13T01:22:41;23.02;;;12.25;;
67146;SDS011;54061;52.036;5.558;2022-11-13T01:25:06;23.63;;;12.38;;
67146;SDS011;54061;52.036;5.558;2022-11-13T01:27:34;25.20;;;13.18;;
67146;SDS011;54061;52.036;5.558;2022-11-13T01:30:01;23.90;;;11.73;;
67146;SDS011;54061;52.036;5.558;2022-11-13T01:32:26;21.75;;;10.95;;
67146;SDS011;54061;52.036;5.558;2022-11-13T01:34:52;26.90;;;13.00;;
67146;SDS011;54061;52.036;5.558;2022-11-13T01:37:18;23.33;;;12.13;;
67146;SDS011;54061;52.036;5.558;2022-11-13T01:39:43;23.75;;;12.85;;
67146;SDS011;54061;52.036;5.558;2022-11-13T01:42:09;22.55;;;12.27;;
67146;SDS011;54061;52.036;5.558;2022-11-13T01:45:48;20.90;;;11.82;;
67146;SDS011;54061;52.036;5.558;2022-11-13T01:47:49;20.25;;;11.98;;
67146;SDS011;54061;52.036;5.558;2022-11-13T01:50:15;20.00;;;10.85;;
67146;SDS011;54061;52.036;5.558;2022-11-13T01:52:41;23.20;;;11.65;;
67146;SDS011;54061;52.036;5.558;2022-11-13T01:55:07;26.42;;;12.32;;
67146;SDS011;54061;52.036;5.558;2022-11-13T01:57:37;23.85;;;11.88;;
67146;SDS011;54061;52.036;5.558;2022-11-13T02:00:04;22.25;;;11.90;;
67146;SDS011;54061;52.036;5.558;2022-11-13T02:02:32;20.60;;;11.25;;
67146;SDS011;54061;52.036;5.558;2022-11-13T02:04:58;24.00;;;12.25;;
67146;SDS011;54061;52.036;5.558;2022-11-13T02:07:24;20.88;;;11.90;;
67146;SDS011;54061;52.036;5.558;2022-11-13T02:09:51;22.70;;;13.05;;
67146;SDS011;54061;52.036;5.558;2022-11-13T02:12:38;23.10;;;12.55;;
67146;SDS011;54061;52.036;5.558;2022-11-13T02:15:07;23.55;;;12.30;;
67146;SDS011;54061;52.036;5.558;2022-11-13T02:17:35;26.00;;;13.48;;
67146;SDS011;54061;52.036;5.558;2022-11-13T02:20:12;25.05;;;13.07;;
67146;SDS011;54061;52.036;5.558;2022-11-13T02:22:56;27.17;;;13.75;;
67146;SDS011;54061;52.036;5.558;2022-11-13T02:25:32;22.27;;;13.07;;
67146;SDS011;54061;52.036;5.558;2022-11-13T02:27:59;25.83;;;13.93;;
67146;SDS011;54061;52.036;5.558;2022-11-13T02:30:25;27.52;;;13.35;;
67146;SDS011;54061;52.036;5.558;2022-11-13T02:32:54;23.05;;;12.40;;
67146;SDS011;54061;52.036;5.558;2022-11-13T02:35:21;22.67;;;12.55;;
67146;SDS011;54061;52.036;5.558;2022-11-13T02:37:50;23.02;;;13.27;;
67146;SDS011;54061;52.036;5.558;2022-11-13T02:40:16;25.73;;;13.77;;
67146;SDS011;54061;52.036;5.558;2022-11-13T02:42:42;25.30;;;14.38;;
67146;SDS011;54061;52.036;5.558;2022-11-13T02:45:08;28.38;;;14.95;;
67146;SDS011;54061;52.036;5.558;2022-11-13T02:47:34;26.58;;;14.48;;
67146;SDS011;54061;52.036;5.558;2022-11-13T02:49:59;24.75;;;13.60;;
67146;SDS011;54061;52.036;5.558;2022-11-13T02:52:25;24.95;;;14.52;;
67146;SDS011;54061;52.036;5.558;2022-11-13T02:54:51;26.42;;;13.65;;
67146;SDS011;54061;52.036;5.558;2022-11-13T02:57:16;28.58;;;12.48;;
67146;SDS011;54061;52.036;5.558;2022-11-13T02:59:42;23.20;;;14.35;;
67146;SDS011;54061;52.036;5.558;2022-11-13T03:02:08;22.85;;;13.23;;
67146;SDS011;54061;52.036;5.558;2022-11-13T03:04:33;24.33;;;13.65;;
67146;SDS011;54061;52.036;5.558;2022-11-13T03:06:59;21.58;;;13.55;;
67146;SDS011;54061;52.036;5.558;2022-11-13T03:09:24;25.27;;;13.43;;
67146;SDS011;54061;52.036;5.558;2022-11-13T03:11:50;23.52;;;13.65;;
67146;SDS011;54061;52.036;5.558;2022-11-13T03:14:15;21.55;;;12.43;;
67146;SDS011;54061;52.036;5.558;2022-11-13T03:16:41;27.08;;;13.45;;
67146;SDS011;54061;52.036;5.558;2022-11-13T03:19:07;23.23;;;13.02;;
67146;SDS011;54061;52.036;5.558;2022-11-13T03:21:32;23.55;;;12.20;;
67146;SDS011;54061;52.036;5.558;2022-11-13T03:23:58;24.02;;;13.23;;
67146;SDS011;54061;52.036;5.558;2022-11-13T03:26:23;24.00;;;12.57;;
67146;SDS011;54061;52.036;5.558;2022-11-13T03:28:51;23.55;;;12.80;;
67146;SDS011;54061;52.036;5.558;2022-11-13T03:31:17;20.50;;;12.25;;
67146;SDS011;54061;52.036;5.558;2022-11-13T03:33:42;24.02;;;11.68;;
67146;SDS011;54061;52.036;5.558;2022-11-13T03:36:08;23.42;;;12.80;;
67146;SDS011;54061;52.036;5.558;2022-11-13T03:38:33;30.35;;;11.88;;
67146;SDS011;54061;52.036;5.558;2022-11-13T03:40:59;23.92;;;12.23;;
67146;SDS011;54061;52.036;5.558;2022-11-13T03:43:25;24.77;;;12.02;;
67146;SDS011;54061;52.036;5.558;2022-11-13T03:45:50;22.40;;;12.13;;
67146;SDS011;54061;52.036;5.558;2022-11-13T03:48:16;23.13;;;11.45;;
67146;SDS011;54061;52.036;5.558;2022-11-13T03:50:42;20.30;;;11.13;;
67146;SDS011;54061;52.036;5.558;2022-11-13T03:53:09;21.48;;;10.95;;
67146;SDS011;54061;52.036;5.558;2022-11-13T03:55:35;20.17;;;11.15;;
67146;SDS011;54061;52.036;5.558;2022-11-13T03:58:00;20.40;;;11.25;;
67146;SDS011;54061;52.036;5.558;2022-11-13T04:00:26;17.67;;;11.48;;
67146;SDS011;54061;52.036;5.558;2022-11-13T04:02:52;23.75;;;12.55;;
67146;SDS011;54061;52.036;5.558;2022-11-13T04:05:17;20.85;;;11.43;;
67146;SDS011;54061;52.036;5.558;2022-11-13T04:07:43;21.30;;;11.63;;
67146;SDS011;54061;52.036;5.558;2022-11-13T04:10:08;21.17;;;10.95;;
67146;SDS011;54061;52.036;5.558;2022-11-13T04:12:34;20.55;;;11.93;;
67146;SDS011;54061;52.036;5.558;2022-11-13T04:14:59;17.98;;;11.00;;
67146;SDS011;54061;52.036;5.558;2022-11-13T04:17:25;18.15;;;10.75;;
67146;SDS011;54061;52.036;5.558;2022-11-13T04:19:50;19.77;;;10.82;;
67146;SDS011;54061;52.036;5.558;2022-11-13T04:22:16;19.52;;;10.77;;
67146;SDS011;54061;52.036;5.558;2022-11-13T04:24:41;22.00;;;11.07;;
67146;SDS011;54061;52.036;5.558;2022-11-13T04:27:07;19.00;;;11.05;;
67146;SDS011;54061;52.036;5.558;2022-11-13T04:29:32;19.80;;;10.45;;
67146;SDS011;54061;52.036;5.558;2022-11-13T04:31:58;17.15;;;9.88;;
67146;SDS011;54061;52.036;5.558;2022-11-13T04:34:23;20.23;;;11.07;;
67146;SDS011;54061;52.036;5.558;2022-11-13T04:36:49;22.13;;;10.18;;
67146;SDS011;54061;52.036;5.558;2022-11-13T04:39:14;17.83;;;9.45;;
67146;SDS011;54061;52.036;5.558;2022-11-13T04:41:40;20.27;;;10.55;;
67146;SDS011;54061;52.036;5.558;2022-11-13T04:44:24;17.73;;;9.90;;
67146;SDS011;54061;52.036;5.558;2022-11-13T04:46:49;19.15;;;9.57;;
67146;SDS011;54061;52.036;5.558;2022-11-13T04:49:15;19.42;;;10.25;;
67146;SDS011;54061;52.036;5.558;2022-11-13T04:51:40;16.27;;;10.30;;
67146;SDS011;54061;52.036;5.558;2022-11-13T04:54:06;20.25;;;10.18;;
67146;SDS011;54061;52.036;5.558;2022-11-13T04:56:31;17.27;;;10.25;;
67146;SDS011;54061;52.036;5.558;2022-11-13T04:58:57;18.88;;;10.23;;
67146;SDS011;54061;52.036;5.558;2022-11-13T05:01:23;21.77;;;10.70;;
67146;SDS011;54061;52.036;5.558;2022-11-13T05:03:48;17.33;;;10.13;;
67146;SDS011;54061;52.036;5.558;2022-11-13T05:06:14;22.45;;;10.50;;
67146;SDS011;54061;52.036;5.558;2022-11-13T05:08:39;14.48;;;9.60;;
67146;SDS011;54061;52.036;5.558;2022-11-13T05:11:05;17.00;;;9.57;;
67146;SDS011;54061;52.036;5.558;2022-11-13T05:13:31;16.25;;;10.13;;
67146;SDS011;54061;52.036;5.558;2022-11-13T05:16:02;15.35;;;9.50;;
67146;SDS011;54061;52.036;5.558;2022-11-13T05:18:32;16.90;;;9.38;;
67146;SDS011;54061;52.036;5.558;2022-11-13T05:20:58;17.90;;;9.18;;
67146;SDS011;54061;52.036;5.558;2022-11-13T05:23:24;15.85;;;8.73;;
67146;SDS011;54061;52.036;5.558;2022-11-13T05:25:50;16.27;;;8.35;;
67146;SDS011;54061;52.036;5.558;2022-11-13T05:28:16;16.65;;;8.88;;
67146;SDS011;54061;52.036;5.558;2022-11-13T05:30:42;16.35;;;9.13;;
67146;SDS011;54061;52.036;5.558;2022-11-13T05:33:08;15.60;;;8.30;;
67146;SDS011;54061;52.036;5.558;2022-11-13T05:35:33;15.10;;;8.20;;
67146;SDS011;54061;52.036;5.558;2022-11-13T05:37:59;19.58;;;8.15;;
67146;SDS011;54061;52.036;5.558;2022-11-13T05:40:26;16.25;;;8.30;;
67146;SDS011;54061;52.036;5.558;2022-11-13T05:42:53;14.50;;;8.55;;
67146;SDS011;54061;52.036;5.558;2022-11-13T05:45:18;15.40;;;8.35;;
67146;SDS011;54061;52.036;5.558;2022-11-13T05:47:44;16.45;;;7.60;;
67146;SDS011;54061;52.036;5.558;2022-11-13T05:50:09;12.85;;;6.85;;
67146;SDS011;54061;52.036;5.558;2022-11-13T05:52:35;19.48;;;7.68;;
67146;SDS011;54061;52.036;5.558;2022-11-13T05:55:00;14.52;;;7.72;;
67146;SDS011;54061;52.036;5.558;2022-11-13T05:57:26;14.57;;;7.93;;
67146;SDS011;54061;52.036;5.558;2022-11-13T05:59:51;12.75;;;7.57;;
67146;SDS011;54061;52.036;5.558;2022-11-13T06:02:17;12.73;;;7.93;;
67146;SDS011;54061;52.036;5.558;2022-11-13T06:04:43;11.43;;;7.10;;
67146;SDS011;54061;52.036;5.558;2022-11-13T06:07:08;11.55;;;6.90;;
67146;SDS011;54061;52.036;5.558;2022-11-13T06:09:33;11.95;;;6.85;;
67146;SDS011;54061;52.036;5.558;2022-11-13T06:11:59;19.90;;;8.20;;
67146;SDS011;54061;52.036;5.558;2022-11-13T06:14:25;15.00;;;8.07;;
67146;SDS011;54061;52.036;5.558;2022-11-13T06:16:50;12.85;;;7.28;;
67146;SDS011;54061;52.036;5.558;2022-11-13T06:19:16;11.40;;;7.05;;
67146;SDS011;54061;52.036;5.558;2022-11-13T06:21:41;13.00;;;7.50;;
67146;SDS011;54061;52.036;5.558;2022-11-13T06:24:08;11.98;;;6.90;;
67146;SDS011;54061;52.036;5.558;2022-11-13T06:26:36;11.52;;;6.90;;
67146;SDS011;54061;52.036;5.558;2022-11-13T06:29:02;16.42;;;7.28;;
67146;SDS011;54061;52.036;5.558;2022-11-13T06:31:31;13.98;;;7.63;;
67146;SDS011;54061;52.036;5.558;2022-11-13T06:33:58;11.88;;;7.20;;
67146;SDS011;54061;52.036;5.558;2022-11-13T06:36:26;9.68;;;7.03;;
67146;SDS011;54061;52.036;5.558;2022-11-13T06:38:53;14.07;;;7.00;;
67146;SDS011;54061;52.036;5.558;2022-11-13T06:41:19;17.25;;;7.60;;
67146;SDS011;54061;52.036;5.558;2022-11-13T06:43:47;13.63;;;7.85;;
67146;SDS011;54061;52.036;5.558;2022-11-13T06:46:17;13.80;;;7.20;;
67146;SDS011;54061;52.036;5.558;2022-11-13T06:48:47;12.80;;;7.30;;
67146;SDS011;54061;52.036;5.558;2022-11-13T06:51:14;11.38;;;7.15;;
67146;SDS011;54061;52.036;5.558;2022-11-13T06:53:41;15.52;;;7.88;;
67146;SDS011;54061;52.036;5.558;2022-11-13T06:56:07;12.95;;;7.93;;
67146;SDS011;54061;52.036;5.558;2022-11-13T06:58:32;22.65;;;11.98;;
67146;SDS011;54061;52.036;5.558;2022-11-13T07:01:03;26.98;;;13.40;;
67146;SDS011;54061;52.036;5.558;2022-11-13T07:03:33;17.88;;;10.48;;
67146;SDS011;54061;52.036;5.558;2022-11-13T07:06:02;17.23;;;9.80;;
67146;SDS011;54061;52.036;5.558;2022-11-13T07:08:29;20.90;;;9.75;;
67146;SDS011;54061;52.036;5.558;2022-11-13T07:10:55;17.02;;;9.98;;
67146;SDS011;54061;52.036;5.558;2022-11-13T07:13:21;17.42;;;9.52;;
67146;SDS011;54061;52.036;5.558;2022-11-13T07:15:47;15.18;;;9.02;;
67146;SDS011;54061;52.036;5.558;2022-11-13T07:18:13;16.83;;;8.55;;
67146;SDS011;54061;52.036;5.558;2022-11-13T07:20:39;17.30;;;8.55;;
67146;SDS011;54061;52.036;5.558;2022-11-13T07:23:04;14.18;;;8.90;;
67146;SDS011;54061;52.036;5.558;2022-11-13T07:25:30;37.95;;;15.32;;
67146;SDS011;54061;52.036;5.558;2022-11-13T07:27:56;31.23;;;15.98;;
67146;SDS011;54061;52.036;5.558;2022-11-13T07:30:22;34.72;;;15.25;;
67146;SDS011;54061;52.036;5.558;2022-11-13T07:32:48;25.38;;;14.15;;
67146;SDS011;54061;52.036;5.558;2022-11-13T07:35:14;25.20;;;11.70;;
67146;SDS011;54061;52.036;5.558;2022-11-13T07:37:40;18.48;;;10.27;;
67146;SDS011;54061;52.036;5.558;2022-11-13T07:40:07;16.42;;;9.50;;
67146;SDS011;54061;52.036;5.558;2022-11-13T07:42:33;17.02;;;9.65;;
67146;SDS011;54061;52.036;5.558;2022-11-13T07:44:58;19.10;;;9.57;;
67146;SDS011;54061;52.036;5.558;2022-11-13T07:47:24;21.25;;;10.40;;
67146;SDS011;54061;52.036;5.558;2022-11-13T07:49:49;16.55;;;9.52;;
67146;SDS011;54061;52.036;5.558;2022-11-13T07:52:15;15.55;;;9.15;;
67146;SDS011;54061;52.036;5.558;2022-11-13T07:54:41;15.88;;;8.75;;
67146;SDS011;54061;52.036;5.558;2022-11-13T07:57:06;16.85;;;8.23;;
67146;SDS011;54061;52.036;5.558;2022-11-13T07:59:32;15.88;;;9.43;;
67146;SDS011;54061;52.036;5.558;2022-11-13T08:01:58;19.38;;;9.02;;
67146;SDS011;54061;52.036;5.558;2022-11-13T08:04:23;17.98;;;8.80;;
67146;SDS011;54061;52.036;5.558;2022-11-13T08:06:49;16.73;;;9.80;;
67146;SDS011;54061;52.036;5.558;2022-11-13T08:09:14;21.65;;;10.45;;
67146;SDS011;54061;52.036;5.558;2022-11-13T08:11:40;20.75;;;10.05;;
67146;SDS011;54061;52.036;5.558;2022-11-13T08:14:06;21.17;;;10.38;;
67146;SDS011;54061;52.036;5.558;2022-11-13T08:16:31;23.95;;;10.93;;
67146;SDS011;54061;52.036;5.558;2022-11-13T08:18:56;22.67;;;12.13;;
67146;SDS011;54061;52.036;5.558;2022-11-13T08:21:22;25.60;;;10.52;;
67146;SDS011;54061;52.036;5.558;2022-11-13T08:23:48;19.33;;;9.65;;
67146;SDS011;54061;52.036;5.558;2022-11-13T08:26:14;24.33;;;8.70;;
67146;SDS011;54061;52.036;5.558;2022-11-13T08:28:40;15.18;;;9.40;;
67146;SDS011;54061;52.036;5.558;2022-11-13T08:31:09;13.48;;;8.70;;
67146;SDS011;54061;52.036;5.558;2022-11-13T08:33:36;12.25;;;8.45;;
67146;SDS011;54061;52.036;5.558;2022-11-13T08:36:02;16.88;;;8.13;;
67146;SDS011;54061;52.036;5.558;2022-11-13T08:38:27;14.10;;;7.63;;
67146;SDS011;54061;52.036;5.558;2022-11-13T08:40:57;14.18;;;7.20;;
67146;SDS011;54061;52.036;5.558;2022-11-13T08:43:23;11.55;;;7.60;;
67146;SDS011;54061;52.036;5.558;2022-11-13T08:45:48;9.73;;;6.60;;
67146;SDS011;54061;52.036;5.558;2022-11-13T08:48:14;14.25;;;6.63;;
67146;SDS011;54061;52.036;5.558;2022-11-13T08:50:39;11.93;;;6.28;;
67146;SDS011;54061;52.036;5.558;2022-11-13T08:53:05;10.20;;;6.35;;
67146;SDS011;54061;52.036;5.558;2022-11-13T08:55:31;13.98;;;6.18;;
67146;SDS011;54061;52.036;5.558;2022-11-13T08:57:58;9.57;;;5.90;;
67146;SDS011;54061;52.036;5.558;2022-11-13T09:00:24;12.90;;;5.60;;
67146;SDS011;54061;52.036;5.558;2022-11-13T09:02:53;8.02;;;5.47;;
67146;SDS011;54061;52.036;5.558;2022-11-13T09:05:20;9.18;;;5.97;;
67146;SDS011;54061;52.036;5.558;2022-11-13T09:07:46;9.93;;;5.72;;
67146;SDS011;54061;52.036;5.558;2022-11-13T09:10:11;11.43;;;5.68;;
67146;SDS011;54061;52.036;5.558;2022-11-13T09:12:37;9.90;;;5.80;;
67146;SDS011;54061;52.036;5.558;2022-11-13T09:15:03;6.85;;;5.72;;
67146;SDS011;54061;52.036;5.558;2022-11-13T09:17:29;10.63;;;6.05;;
67146;SDS011;54061;52.036;5.558;2022-11-13T09:19:55;7.47;;;5.80;;
67146;SDS011;54061;52.036;5.558;2022-11-13T09:22:21;10.35;;;6.30;;
67146;SDS011;54061;52.036;5.558;2022-11-13T09:24:46;10.90;;;6.45;;
67146;SDS011;54061;52.036;5.558;2022-11-13T09:27:12;8.63;;;5.95;;
67146;SDS011;54061;52.036;5.558;2022-11-13T09:29:37;9.77;;;5.97;;
67146;SDS011;54061;52.036;5.558;2022-11-13T09:32:03;8.43;;;6.10;;
67146;SDS011;54061;52.036;5.558;2022-11-13T09:34:28;11.30;;;6.07;;
67146;SDS011;54061;52.036;5.558;2022-11-13T09:36:54;10.23;;;5.90;;
67146;SDS011;54061;52.036;5.558;2022-11-13T09:39:20;8.57;;;6.03;;
67146;SDS011;54061;52.036;5.558;2022-11-13T09:41:49;7.85;;;5.75;;
67146;SDS011;54061;52.036;5.558;2022-11-13T09:47:11;11.13;;;5.75;;
67146;SDS011;54061;52.036;5.558;2022-11-13T09:49:45;6.47;;;5.13;;
67146;SDS011;54061;52.036;5.558;2022-11-13T09:52:18;7.80;;;5.47;;
67146;SDS011;54061;52.036;5.558;2022-11-13T09:54:48;8.65;;;5.35;;
67146;SDS011;54061;52.036;5.558;2022-11-13T09:57:28;10.25;;;5.93;;
67146;SDS011;54061;52.036;5.558;2022-11-13T10:00:12;9.82;;;5.50;;
67146;SDS011;54061;52.036;5.558;2022-11-13T10:05:40;8.75;;;5.93;;
67146;SDS011;54061;52.036;5.558;2022-11-13T10:08:28;10.82;;;6.13;;
67146;SDS011;54061;52.036;5.558;2022-11-13T10:11:06;9.98;;;6.05;;
67146;SDS011;54061;52.036;5.558;2022-11-13T10:13:45;11.10;;;6.13;;
67146;SDS011;54061;52.036;5.558;2022-11-13T10:16:24;9.82;;;6.57;;
67146;SDS011;54061;52.036;5.558;2022-11-13T10:18:51;11.05;;;6.25;;
67146;SDS011;54061;52.036;5.558;2022-11-13T10:24:02;13.32;;;7.55;;
67146;SDS011;54061;52.036;5.558;2022-11-13T10:26:35;12.40;;;7.88;;
67146;SDS011;54061;52.036;5.558;2022-11-13T10:29:20;10.50;;;7.40;;
67146;SDS011;54061;52.036;5.558;2022-11-13T10:31:49;10.52;;;7.45;;
67146;SDS011;54061;52.036;5.558;2022-11-13T10:34:16;13.45;;;7.80;;
67146;SDS011;54061;52.036;5.558;2022-11-13T10:36:48;14.07;;;8.07;;
67146;SDS011;54061;52.036;5.558;2022-11-13T10:39:16;10.45;;;7.00;;
67146;SDS011;54061;52.036;5.558;2022-11-13T10:41:49;9.88;;;6.85;;
67146;SDS011;54061;52.036;5.558;2022-11-13T10:44:24;15.32;;;7.13;;
67146;SDS011;54061;52.036;5.558;2022-11-13T10:47:03;11.93;;;6.13;;
67146;SDS011;54061;52.036;5.558;2022-11-13T10:49:38;11.13;;;5.72;;
67146;SDS011;54061;52.036;5.558;2022-11-13T10:52:11;8.25;;;5.80;;
67146;SDS011;54061;52.036;5.558;2022-11-13T10:55:16;8.68;;;5.53;;
67146;SDS011;54061;52.036;5.558;2022-11-13T10:57:42;17.05;;;5.80;;
67146;SDS011;54061;52.036;5.558;2022-11-13T11:00:19;10.18;;;5.60;;
67146;SDS011;54061;52.036;5.558;2022-11-13T11:02:50;8.80;;;5.18;;
67146;SDS011;54061;52.036;5.558;2022-11-13T11:05:20;10.05;;;5.57;;
67146;SDS011;54061;52.036;5.558;2022-11-13T11:07:47;19.17;;;9.13;;
67146;SDS011;54061;52.036;5.558;2022-11-13T11:10:25;11.48;;;5.68;;
67146;SDS011;54061;52.036;5.558;2022-11-13T11:12:57;7.65;;;4.63;;
67146;SDS011;54061;52.036;5.558;2022-11-13T11:15:46;8.75;;;4.85;;
67146;SDS011;54061;52.036;5.558;2022-11-13T11:18:23;13.48;;;5.45;;
67146;SDS011;54061;52.036;5.558;2022-11-13T11:20:58;6.63;;;4.83;;
67146;SDS011;54061;52.036;5.558;2022-11-13T11:23:37;12.65;;;6.57;;
67146;SDS011;54061;52.036;5.558;2022-11-13T11:26:41;8.43;;;5.95;;
67146;SDS011;54061;52.036;5.558;2022-11-13T11:32:09;14.88;;;5.43;;
67146;SDS011;54061;52.036;5.558;2022-11-13T11:34:50;11.35;;;4.90;;
67146;SDS011;54061;52.036;5.558;2022-11-13T11:37:22;6.20;;;4.43;;
67146;SDS011;54061;52.036;5.558;2022-11-13T11:42:58;12.55;;;6.30;;
67146;SDS011;54061;52.036;5.558;2022-11-13T11:45:46;7.32;;;4.65;;
67146;SDS011;54061;52.036;5.558;2022-11-13T11:48:12;9.95;;;4.40;;
67146;SDS011;54061;52.036;5.558;2022-11-13T11:56:21;8.82;;;4.50;;
67146;SDS011;54061;52.036;5.558;2022-11-13T11:59:20;8.00;;;4.72;;
67146;SDS011;54061;52.036;5.558;2022-11-13T12:04:59;8.27;;;5.10;;
67146;SDS011;54061;52.036;5.558;2022-11-13T12:15:32;5.73;;;3.23;;
67146;SDS011;54061;52.036;5.558;2022-11-13T12:18:18;14.27;;;4.45;;
67146;SDS011;54061;52.036;5.558;2022-11-13T12:21:10;6.85;;;3.35;;
67146;SDS011;54061;52.036;5.558;2022-11-13T12:29:14;6.30;;;2.92;;
67146;SDS011;54061;52.036;5.558;2022-11-13T12:34:50;7.78;;;3.30;;
67146;SDS011;54061;52.036;5.558;2022-11-13T12:37:21;7.80;;;3.42;;
67146;SDS011;54061;52.036;5.558;2022-11-13T12:40:10;4.95;;;3.10;;
67146;SDS011;54061;52.036;5.558;2022-11-13T12:42:47;6.43;;;3.08;;
67146;SDS011;54061;52.036;5.558;2022-11-13T12:45:43;3.85;;;2.85;;
67146;SDS011;54061;52.036;5.558;2022-11-13T12:50:42;8.00;;;3.17;;
67146;SDS011;54061;52.036;5.558;2022-11-13T12:53:09;4.38;;;2.83;;
67146;SDS011;54061;52.036;5.558;2022-11-13T12:55:37;5.82;;;3.00;;
67146;SDS011;54061;52.036;5.558;2022-11-13T12:58:17;6.25;;;2.92;;
67146;SDS011;54061;52.036;5.558;2022-11-13T13:00:52;7.43;;;3.72;;
67146;SDS011;54061;52.036;5.558;2022-11-13T13:06:48;10.40;;;3.40;;
67146;SDS011;54061;52.036;5.558;2022-11-13T13:12:23;11.95;;;4.65;;
67146;SDS011;54061;52.036;5.558;2022-11-13T13:15:52;21.17;;;8.13;;
67146;SDS011;54061;52.036;5.558;2022-11-13T13:18:32;6.20;;;3.00;;
67146;SDS011;54061;52.036;5.558;2022-11-13T13:21:07;7.35;;;3.13;;
67146;SDS011;54061;52.036;5.558;2022-11-13T13:23:36;5.18;;;2.15;;
67146;SDS011;54061;52.036;5.558;2022-11-13T13:28:38;5.10;;;2.53;;
67146;SDS011;54061;52.036;5.558;2022-11-13T13:36:42;4.88;;;2.55;;
67146;SDS011;54061;52.036;5.558;2022-11-13T13:47:48;4.18;;;2.95;;
67146;SDS011;54061;52.036;5.558;2022-11-13T13:50:25;5.65;;;3.05;;
67146;SDS011;54061;52.036;5.558;2022-11-13T13:52:54;6.82;;;2.92;;
67146;SDS011;54061;52.036;5.558;2022-11-13T13:55:26;3.97;;;3.00;;
67146;SDS011;54061;52.036;5.558;2022-11-13T13:57:56;8.73;;;3.13;;
67146;SDS011;54061;52.036;5.558;2022-11-13T14:00:22;5.00;;;2.90;;
67146;SDS011;54061;52.036;5.558;2022-11-13T14:02:49;4.40;;;2.72;;
67146;SDS011;54061;52.036;5.558;2022-11-13T14:07:50;5.38;;;2.88;;
67146;SDS011;54061;52.036;5.558;2022-11-13T14:10:17;5.28;;;2.80;;
67146;SDS011;54061;52.036;5.558;2022-11-13T14:12:44;4.68;;;2.90;;
67146;SDS011;54061;52.036;5.558;2022-11-13T14:15:29;8.60;;;4.85;;
67146;SDS011;54061;52.036;5.558;2022-11-13T14:23:12;5.43;;;2.72;;
67146;SDS011;54061;52.036;5.558;2022-11-13T14:25:43;2.42;;;2.20;;
67146;SDS011;54061;52.036;5.558;2022-11-13T14:28:19;4.05;;;2.30;;
67146;SDS011;54061;52.036;5.558;2022-11-13T14:30:54;6.25;;;2.80;;
67146;SDS011;54061;52.036;5.558;2022-11-13T14:33:33;7.22;;;2.35;;
67146;SDS011;54061;52.036;5.558;2022-11-13T14:36:04;3.33;;;2.22;;
67146;SDS011;54061;52.036;5.558;2022-11-13T14:38:33;9.68;;;2.15;;
67146;SDS011;54061;52.036;5.558;2022-11-13T14:41:00;5.72;;;2.55;;
67146;SDS011;54061;52.036;5.558;2022-11-13T14:43:29;6.68;;;1.98;;
67146;SDS011;54061;52.036;5.558;2022-11-13T14:46:00;4.25;;;2.17;;
67146;SDS011;54061;52.036;5.558;2022-11-13T14:48:31;5.40;;;2.70;;
67146;SDS011;54061;52.036;5.558;2022-11-13T14:51:02;7.13;;;3.35;;
67146;SDS011;54061;52.036;5.558;2022-11-13T14:53:31;4.78;;;2.70;;
67146;SDS011;54061;52.036;5.558;2022-11-13T14:56:02;6.10;;;2.90;;
67146;SDS011;54061;52.036;5.558;2022-11-13T15:01:10;4.35;;;2.20;;
67146;SDS011;54061;52.036;5.558;2022-11-13T15:03:47;4.75;;;2.40;;
67146;SDS011;54061;52.036;5.558;2022-11-13T15:06:21;5.15;;;2.40;;
67146;SDS011;54061;52.036;5.558;2022-11-13T15:08:48;4.65;;;2.63;;
67146;SDS011;54061;52.036;5.558;2022-11-13T15:11:19;3.72;;;2.25;;
67146;SDS011;54061;52.036;5.558;2022-11-13T15:13:47;3.67;;;2.60;;
67146;SDS011;54061;52.036;5.558;2022-11-13T15:16:23;3.85;;;2.38;;
67146;SDS011;54061;52.036;5.558;2022-11-13T15:18:59;4.85;;;2.55;;
67146;SDS011;54061;52.036;5.558;2022-11-13T15:21:27;8.60;;;3.28;;
67146;SDS011;54061;52.036;5.558;2022-11-13T15:23:54;4.70;;;2.70;;
67146;SDS011;54061;52.036;5.558;2022-11-13T15:26:19;4.07;;;2.95;;
67146;SDS011;54061;52.036;5.558;2022-11-13T15:28:45;5.75;;;3.13;;
67146;SDS011;54061;52.036;5.558;2022-11-13T15:31:21;7.47;;;3.63;;
67146;SDS011;54061;52.036;5.558;2022-11-13T15:33:52;5.68;;;3.42;;
67146;SDS011;54061;52.036;5.558;2022-11-13T15:36:17;6.80;;;5.50;;
67146;SDS011;54061;52.036;5.558;2022-11-13T15:38:43;12.63;;;7.97;;
67146;SDS011;54061;52.036;5.558;2022-11-13T15:41:12;10.05;;;5.50;;
67146;SDS011;54061;52.036;5.558;2022-11-13T15:43:43;5.80;;;4.50;;
67146;SDS011;54061;52.036;5.558;2022-11-13T15:46:11;5.95;;;4.07;;
67146;SDS011;54061;52.036;5.558;2022-11-13T15:48:38;4.85;;;3.88;;
67146;SDS011;54061;52.036;5.558;2022-11-13T15:51:04;5.85;;;3.72;;
67146;SDS011;54061;52.036;5.558;2022-11-13T15:53:30;5.07;;;3.50;;
67146;SDS011;54061;52.036;5.558;2022-11-13T15:55:56;11.55;;;4.65;;
67146;SDS011;54061;52.036;5.558;2022-11-13T15:58:26;8.98;;;4.90;;
67146;SDS011;54061;52.036;5.558;2022-11-13T16:00:52;16.73;;;9.40;;